Time;durP1;ratioP1;P1;durP2;ratioP2;P2;SDS_P1;SDS_P2;PMS_P1;PMS_P2;Temp;Humidity;BMP_temperature;BMP_pressure;BME280_temperature;BME280_humidity;BME280_pressure;Samples;Min_cycle;Max_cycle;Signal;HPM_P1;HPM_P2
2021/07/29 00:02:03;;;;;;;30.77;5.75;;;;;;;;;;5051071;28;20036;-65
2021/07/29 00:04:29;;;;;;;26.13;4.80;;;;;;;;;;5046274;28;20045;-66
2021/07/29 00:06:55;;;;;;;23.45;4.13;;;;;;;;;;5049413;28;20497;-69
2021/07/29 00:09:21;;;;;;;38.88;6.10;;;;;;;;;;5051035;28;20032;-66
2021/07/29 00:11:47;;;;;;;32.13;5.22;;;;;;;;;;5049174;28;20027;-65
2021/07/29 00:14:13;;;;;;;25.70;5.78;;;;;;;;;;5050520;28;20489;-66
2021/07/29 00:16:45;;;;;;;29.30;6.25;;;;;;;;;;5057090;28;20020;-68
2021/07/29 00:19:11;;;;;;;24.08;5.35;;;;;;;;;;5050309;28;20033;-65
2021/07/29 00:21:38;;;;;;;32.33;5.82;;;;;;;;;;5050447;28;20075;-68
2021/07/29 00:24:04;;;;;;;32.15;5.18;;;;;;;;;;5050558;28;20040;-65
2021/07/29 00:26:31;;;;;;;23.33;4.60;;;;;;;;;;5048641;28;20031;-66
2021/07/29 00:28:57;;;;;;;27.42;5.78;;;;;;;;;;5046507;28;20029;-66
2021/07/29 00:31:35;;;;;;;23.40;4.65;;;;;;;;;;5050172;28;20110;-65
2021/07/29 00:34:02;;;;;;;27.00;5.05;;;;;;;;;;5051452;28;20043;-66
2021/07/29 00:36:28;;;;;;;29.25;5.55;;;;;;;;;;5044869;28;20397;-67
2021/07/29 00:38:55;;;;;;;25.98;5.28;;;;;;;;;;5055838;28;20029;-66
2021/07/29 00:41:21;;;;;;;30.35;5.35;;;;;;;;;;5050402;28;20025;-67
2021/07/29 00:43:47;;;;;;;25.98;5.70;;;;;;;;;;5051204;28;20094;-68
2021/07/29 00:46:14;;;;;;;25.42;5.72;;;;;;;;;;5049141;28;20082;-66
2021/07/29 00:48:41;;;;;;;20.48;4.78;;;;;;;;;;5046557;28;20099;-67
2021/07/29 00:51:07;;;;;;;26.48;5.22;;;;;;;;;;5050408;28;20017;-67
2021/07/29 00:53:34;;;;;;;24.70;4.85;;;;;;;;;;5049809;28;20124;-67
2021/07/29 00:56:00;;;;;;;25.33;4.38;;;;;;;;;;5048842;28;20489;-67
2021/07/29 00:58:26;;;;;;;24.80;4.10;;;;;;;;;;5049976;28;20493;-68
2021/07/29 01:00:52;;;;;;;23.35;5.65;;;;;;;;;;5049855;28;20480;-67
2021/07/29 01:03:18;;;;;;;19.58;4.90;;;;;;;;;;5049499;28;20025;-67
2021/07/29 01:05:44;;;;;;;28.25;5.25;;;;;;;;;;5048740;28;20024;-68
2021/07/29 01:08:10;;;;;;;16.70;4.15;;;;;;;;;;5048404;28;20049;-67
2021/07/29 01:10:36;;;;;;;17.50;3.97;;;;;;;;;;5050583;28;20075;-68
2021/07/29 01:13:03;;;;;;;26.42;4.70;;;;;;;;;;5050188;28;20021;-66
2021/07/29 01:15:29;;;;;;;21.23;3.95;;;;;;;;;;5048735;28;20033;-67
2021/07/29 01:18:00;;;;;;;22.90;3.65;;;;;;;;;;5050368;28;20103;-68
2021/07/29 01:20:27;;;;;;;17.55;3.63;;;;;;;;;;5048336;28;20104;-66
2021/07/29 01:22:53;;;;;;;25.30;4.10;;;;;;;;;;5049807;28;20017;-68
2021/07/29 01:25:19;;;;;;;17.98;4.35;;;;;;;;;;5049378;28;20032;-67
2021/07/29 01:27:45;;;;;;;24.85;5.07;;;;;;;;;;5062688;28;20112;-67
2021/07/29 01:30:11;;;;;;;27.40;4.13;;;;;;;;;;5045506;28;20029;-67
2021/07/29 01:32:39;;;;;;;24.90;3.97;;;;;;;;;;5053261;28;20025;-66
2021/07/29 01:35:08;;;;;;;26.05;4.03;;;;;;;;;;5052389;28;20025;-67
2021/07/29 01:37:34;;;;;;;24.42;4.00;;;;;;;;;;5045874;28;20626;-67
2021/07/29 01:40:00;;;;;;;14.38;2.95;;;;;;;;;;5052607;28;20029;-66
2021/07/29 01:42:26;;;;;;;18.77;3.75;;;;;;;;;;5053436;28;20116;-69
2021/07/29 01:44:52;;;;;;;12.82;2.30;;;;;;;;;;5051803;28;20029;-69
2021/07/29 01:47:18;;;;;;;16.13;3.22;;;;;;;;;;5052895;28;20523;-67
2021/07/29 01:49:44;;;;;;;20.23;4.07;;;;;;;;;;5051298;28;20489;-67
2021/07/29 01:52:10;;;;;;;16.02;2.53;;;;;;;;;;5053369;28;20036;-66
2021/07/29 01:54:37;;;;;;;16.60;3.25;;;;;;;;;;5053318;28;20013;-68
2021/07/29 01:57:06;;;;;;;15.13;2.95;;;;;;;;;;5051797;28;20115;-68
2021/07/29 01:59:35;;;;;;;18.30;2.78;;;;;;;;;;5052964;28;20029;-67
2021/07/29 02:02:01;;;;;;;15.82;3.10;;;;;;;;;;5052883;28;20083;-68
2021/07/29 02:04:27;;;;;;;14.68;3.60;;;;;;;;;;5051275;28;20040;-67
2021/07/29 02:06:53;;;;;;;23.25;2.72;;;;;;;;;;5051452;28;20028;-66
2021/07/29 02:09:19;;;;;;;13.50;2.47;;;;;;;;;;5052483;28;20036;-67
2021/07/29 02:11:49;;;;;;;20.85;2.47;;;;;;;;;;5052944;28;20021;-66
2021/07/29 02:14:22;;;;;;;11.65;2.75;;;;;;;;;;5051805;28;20424;-67
2021/07/29 02:16:49;;;;;;;10.60;2.20;;;;;;;;;;5051347;28;20108;-66
2021/07/29 02:19:16;;;;;;;14.98;2.58;;;;;;;;;;5047012;28;20095;-68
2021/07/29 02:21:42;;;;;;;11.32;2.30;;;;;;;;;;5050717;28;20037;-66
2021/07/29 02:24:08;;;;;;;11.88;2.13;;;;;;;;;;5053205;28;20098;-67
2021/07/29 02:26:34;;;;;;;14.57;2.95;;;;;;;;;;5055746;28;20024;-67
2021/07/29 02:29:00;;;;;;;15.13;2.90;;;;;;;;;;5049367;28;20037;-66
2021/07/29 02:31:26;;;;;;;10.20;2.00;;;;;;;;;;5039767;28;20025;-67
2021/07/29 02:33:52;;;;;;;14.85;2.67;;;;;;;;;;5051066;28;20039;-67
2021/07/29 02:36:18;;;;;;;18.85;3.25;;;;;;;;;;5050347;28;20052;-68
2021/07/29 02:38:44;;;;;;;14.65;2.45;;;;;;;;;;5050798;28;20025;-66
2021/07/29 02:41:10;;;;;;;16.88;2.63;;;;;;;;;;5054276;28;20079;-68
2021/07/29 02:43:37;;;;;;;13.65;2.03;;;;;;;;;;5052758;28;20021;-68
2021/07/29 02:46:03;;;;;;;10.93;1.80;;;;;;;;;;5050026;28;20036;-67
2021/07/29 02:48:29;;;;;;;13.35;2.05;;;;;;;;;;5051367;28;20029;-67
2021/07/29 02:50:55;;;;;;;22.48;4.70;;;;;;;;;;5050536;28;20065;-69
2021/07/29 02:53:25;;;;;;;15.05;3.00;;;;;;;;;;5049589;28;20017;-66
2021/07/29 02:55:57;;;;;;;11.48;2.72;;;;;;;;;;5050465;28;20074;-68
2021/07/29 02:58:23;;;;;;;15.10;2.25;;;;;;;;;;5051945;28;20029;-67
2021/07/29 03:00:49;;;;;;;7.70;2.28;;;;;;;;;;5051506;28;20032;-67
2021/07/29 03:03:15;;;;;;;14.43;2.72;;;;;;;;;;5051323;28;20517;-67
2021/07/29 03:05:41;;;;;;;16.92;2.97;;;;;;;;;;5049955;28;20521;-67
2021/07/29 03:08:07;;;;;;;13.85;2.75;;;;;;;;;;5051813;28;20029;-67
2021/07/29 03:10:33;;;;;;;20.98;2.70;;;;;;;;;;5056151;28;20712;-67
2021/07/29 03:13:01;;;;;;;9.45;2.53;;;;;;;;;;5050101;28;20105;-67
2021/07/29 03:15:29;;;;;;;10.25;1.90;;;;;;;;;;5050550;28;20017;-68
2021/07/29 03:17:55;;;;;;;11.77;2.38;;;;;;;;;;5051492;28;20037;-66
2021/07/29 03:20:21;;;;;;;11.48;2.38;;;;;;;;;;5051197;28;20033;-66
2021/07/29 03:22:47;;;;;;;14.57;2.17;;;;;;;;;;5049452;28;20033;-67
2021/07/29 03:25:13;;;;;;;11.88;2.63;;;;;;;;;;5050536;28;20025;-66
2021/07/29 03:27:39;;;;;;;15.85;2.90;;;;;;;;;;5045238;28;20025;-67
2021/07/29 03:30:06;;;;;;;19.80;3.92;;;;;;;;;;5050889;28;20033;-68
2021/07/29 03:32:32;;;;;;;18.48;2.90;;;;;;;;;;5053893;28;20021;-69
2021/07/29 03:34:58;;;;;;;14.98;2.67;;;;;;;;;;5047917;28;20307;-66
2021/07/29 03:37:24;;;;;;;16.45;2.72;;;;;;;;;;5049611;28;20645;-67
2021/07/29 03:39:50;;;;;;;13.68;3.58;;;;;;;;;;5050150;28;20060;-66
2021/07/29 03:42:19;;;;;;;11.63;2.67;;;;;;;;;;5050855;28;20035;-66
2021/07/29 03:44:45;;;;;;;15.90;4.20;;;;;;;;;;5047395;28;20025;-67
2021/07/29 03:47:11;;;;;;;15.45;3.03;;;;;;;;;;5052951;28;20033;-66
2021/07/29 03:49:37;;;;;;;16.65;2.88;;;;;;;;;;5049597;28;20054;-67
2021/07/29 03:52:03;;;;;;;16.42;2.97;;;;;;;;;;5050129;28;20507;-66
2021/07/29 03:54:31;;;;;;;16.33;2.65;;;;;;;;;;5050472;28;20439;-66
2021/07/29 03:56:57;;;;;;;17.00;3.40;;;;;;;;;;5052782;28;20167;-66
2021/07/29 03:59:23;;;;;;;17.48;3.05;;;;;;;;;;5054162;28;20025;-65
2021/07/29 04:01:49;;;;;;;11.07;2.15;;;;;;;;;;5051814;28;20032;-66
2021/07/29 04:04:15;;;;;;;21.83;3.00;;;;;;;;;;5049328;28;20071;-66
2021/07/29 04:06:41;;;;;;;12.90;2.38;;;;;;;;;;5052403;28;20036;-66
2021/07/29 04:09:07;;;;;;;15.23;4.07;;;;;;;;;;5050307;28;20099;-66
2021/07/29 04:11:33;;;;;;;16.85;3.83;;;;;;;;;;5044531;28;20017;-67
2021/07/29 04:14:00;;;;;;;13.02;2.60;;;;;;;;;;5050376;28;20048;-67
2021/07/29 04:16:26;;;;;;;12.27;2.67;;;;;;;;;;5051897;28;20032;-66
2021/07/29 04:18:52;;;;;;;16.25;2.58;;;;;;;;;;5050420;28;20029;-66
2021/07/29 04:21:18;;;;;;;16.70;2.92;;;;;;;;;;5049841;28;20029;-67
2021/07/29 04:23:44;;;;;;;13.77;2.63;;;;;;;;;;5050799;28;20040;-65
2021/07/29 04:26:10;;;;;;;11.57;2.88;;;;;;;;;;5047916;28;20061;-66
2021/07/29 04:28:36;;;;;;;16.15;2.63;;;;;;;;;;5050391;28;20583;-66
2021/07/29 04:31:02;;;;;;;14.93;3.83;;;;;;;;;;5049466;28;20814;-67
2021/07/29 04:33:28;;;;;;;9.00;2.90;;;;;;;;;;5049912;28;20028;-66
2021/07/29 04:35:54;;;;;;;32.08;4.35;;;;;;;;;;5052913;28;20040;-66
2021/07/29 04:38:20;;;;;;;14.68;3.65;;;;;;;;;;5049942;28;20025;-67
2021/07/29 04:40:46;;;;;;;13.00;2.80;;;;;;;;;;5050985;28;20028;-65
2021/07/29 04:43:12;;;;;;;17.48;3.42;;;;;;;;;;5047996;28;20033;-66
2021/07/29 04:45:38;;;;;;;18.00;4.00;;;;;;;;;;5048918;28;20021;-66
2021/07/29 04:48:04;;;;;;;15.95;3.15;;;;;;;;;;5045412;28;20063;-67
2021/07/29 04:50:30;;;;;;;14.90;3.83;;;;;;;;;;5051410;28;20489;-68
2021/07/29 04:52:56;;;;;;;16.50;3.75;;;;;;;;;;5051523;28;20476;-67
2021/07/29 04:55:22;;;;;;;17.92;3.75;;;;;;;;;;5049566;28;20032;-67
2021/07/29 04:57:48;;;;;;;14.05;3.08;;;;;;;;;;5049445;28;20500;-67
2021/07/29 05:00:15;;;;;;;17.35;3.05;;;;;;;;;;5051985;28;20029;-68
2021/07/29 05:02:41;;;;;;;14.40;3.13;;;;;;;;;;5051767;28;20048;-64
2021/07/29 05:05:07;;;;;;;15.15;3.28;;;;;;;;;;5052872;28;20625;-67
2021/07/29 05:07:33;;;;;;;16.75;4.28;;;;;;;;;;5054728;28;20482;-68
2021/07/29 05:09:59;;;;;;;12.35;3.15;;;;;;;;;;5053437;28;20056;-66
2021/07/29 05:12:25;;;;;;;16.13;3.28;;;;;;;;;;5055678;28;20048;-65
2021/07/29 05:14:56;;;;;;;20.63;3.53;;;;;;;;;;5053087;28;20021;-68
2021/07/29 05:17:22;;;;;;;15.93;3.50;;;;;;;;;;5052433;28;20017;-67
2021/07/29 05:19:48;;;;;;;15.60;2.85;;;;;;;;;;5054446;28;20021;-66
2021/07/29 05:22:15;;;;;;;14.38;3.35;;;;;;;;;;5053403;28;20119;-67
2021/07/29 05:24:41;;;;;;;17.55;3.58;;;;;;;;;;5052220;28;20029;-67
2021/07/29 05:27:07;;;;;;;16.70;2.88;;;;;;;;;;5053243;28;20044;-66
2021/07/29 05:29:33;;;;;;;13.15;2.90;;;;;;;;;;5057582;28;20029;-65
2021/07/29 05:31:59;;;;;;;12.90;3.50;;;;;;;;;;5052692;28;20040;-65
2021/07/29 05:34:28;;;;;;;20.67;3.38;;;;;;;;;;5045636;28;20021;-67
2021/07/29 05:36:54;;;;;;;14.20;3.25;;;;;;;;;;5049509;28;20029;-65
2021/07/29 05:39:20;;;;;;;14.68;2.75;;;;;;;;;;5050861;28;20048;-67
2021/07/29 05:41:46;;;;;;;12.15;3.03;;;;;;;;;;5052782;28;20098;-67
2021/07/29 05:44:12;;;;;;;16.38;3.08;;;;;;;;;;5054407;28;20489;-66
2021/07/29 05:46:38;;;;;;;12.80;2.85;;;;;;;;;;5053983;28;20119;-67
2021/07/29 05:49:04;;;;;;;9.70;3.47;;;;;;;;;;5052076;28;20032;-65
2021/07/29 05:51:30;;;;;;;12.45;3.13;;;;;;;;;;5046226;28;20021;-66
2021/07/29 05:53:56;;;;;;;19.20;4.13;;;;;;;;;;5053619;28;20031;-65
2021/07/29 05:56:23;;;;;;;9.98;2.83;;;;;;;;;;5047872;28;20017;-67
2021/07/29 05:58:49;;;;;;;18.20;3.63;;;;;;;;;;5048002;28;20148;-67
2021/07/29 06:01:15;;;;;;;14.38;2.90;;;;;;;;;;5051060;28;20032;-68
2021/07/29 06:03:41;;;;;;;13.13;3.28;;;;;;;;;;5052101;28;20036;-68
2021/07/29 06:06:07;;;;;;;13.35;3.40;;;;;;;;;;5047612;28;20055;-66
2021/07/29 06:08:33;;;;;;;11.52;3.47;;;;;;;;;;5049090;28;20032;-66
2021/07/29 06:11:02;;;;;;;14.50;3.42;;;;;;;;;;5049493;28;20098;-68
2021/07/29 06:13:28;;;;;;;13.88;2.88;;;;;;;;;;5048600;28;20067;-68
2021/07/29 06:15:54;;;;;;;11.73;3.22;;;;;;;;;;5048224;28;20024;-68
2021/07/29 06:18:23;;;;;;;10.88;2.88;;;;;;;;;;5046794;28;20037;-67
2021/07/29 06:20:49;;;;;;;13.90;3.03;;;;;;;;;;5047882;28;20064;-68
2021/07/29 06:23:15;;;;;;;17.67;3.88;;;;;;;;;;5050351;28;20040;-69
2021/07/29 06:25:41;;;;;;;12.85;2.65;;;;;;;;;;5047596;28;20105;-65
2021/07/29 06:28:15;;;;;;;18.48;3.40;;;;;;;;;;5050905;28;20061;-65
2021/07/29 06:30:43;;;;;;;16.95;3.78;;;;;;;;;;5049147;28;20033;-65
2021/07/29 06:33:09;;;;;;;17.42;3.63;;;;;;;;;;5049042;28;20511;-68
2021/07/29 06:35:35;;;;;;;14.20;4.05;;;;;;;;;;5048675;28;20423;-66
2021/07/29 06:38:01;;;;;;;17.98;2.78;;;;;;;;;;5048782;28;20032;-64
2021/07/29 06:40:27;;;;;;;14.38;4.20;;;;;;;;;;5044988;28;20480;-66
2021/07/29 06:42:54;;;;;;;13.48;3.15;;;;;;;;;;5045363;28;20028;-67
2021/07/29 06:45:20;;;;;;;18.83;3.45;;;;;;;;;;5048660;28;20021;-66
2021/07/29 06:47:46;;;;;;;18.15;4.25;;;;;;;;;;5046712;28;20047;-67
2021/07/29 06:50:12;;;;;;;17.63;3.15;;;;;;;;;;5045073;28;20029;-66
2021/07/29 06:52:38;;;;;;;15.93;2.78;;;;;;;;;;5047566;28;20021;-66
2021/07/29 06:55:06;;;;;;;15.43;3.50;;;;;;;;;;5049579;28;20032;-67
2021/07/29 06:57:32;;;;;;;16.70;4.43;;;;;;;;;;5047668;28;20051;-67
2021/07/29 06:59:58;;;;;;;17.20;3.47;;;;;;;;;;5048584;28;20087;-67
2021/07/29 07:02:24;;;;;;;12.40;3.28;;;;;;;;;;5049727;28;20033;-69
2021/07/29 07:04:50;;;;;;;15.95;3.90;;;;;;;;;;5048312;28;20032;-65
2021/07/29 07:07:16;;;;;;;19.95;3.13;;;;;;;;;;5050174;28;20036;-67
2021/07/29 07:09:43;;;;;;;12.85;3.17;;;;;;;;;;5052712;28;21311;-68
2021/07/29 07:12:09;;;;;;;14.40;4.25;;;;;;;;;;5055687;28;20025;-68
2021/07/29 07:14:35;;;;;;;14.35;2.60;;;;;;;;;;5049956;28;20511;-72
2021/07/29 07:17:03;;;;;;;11.88;2.28;;;;;;;;;;5052357;28;20017;-67
2021/07/29 07:19:29;;;;;;;11.95;2.97;;;;;;;;;;5049029;28;20040;-66
2021/07/29 07:21:55;;;;;;;11.43;3.22;;;;;;;;;;5051640;28;20035;-65
2021/07/29 07:24:23;;;;;;;15.23;2.88;;;;;;;;;;5050713;28;20115;-65
2021/07/29 07:26:49;;;;;;;15.07;3.25;;;;;;;;;;5049316;28;20024;-67
2021/07/29 07:29:15;;;;;;;13.27;2.70;;;;;;;;;;5045445;28;20037;-66
2021/07/29 07:31:41;;;;;;;13.45;3.30;;;;;;;;;;5047060;28;20025;-67
2021/07/29 07:34:07;;;;;;;15.35;2.90;;;;;;;;;;5047080;28;20412;-66
2021/07/29 07:36:33;;;;;;;10.88;2.80;;;;;;;;;;5046876;28;20792;-66
2021/07/29 07:38:59;;;;;;;16.63;3.67;;;;;;;;;;5049878;28;20029;-67
2021/07/29 07:41:25;;;;;;;17.13;3.95;;;;;;;;;;5050653;28;20488;-65
2021/07/29 07:43:51;;;;;;;17.55;3.72;;;;;;;;;;5051918;28;20033;-68
2021/07/29 07:46:17;;;;;;;17.00;3.33;;;;;;;;;;5047295;28;20516;-66
2021/07/29 07:48:43;;;;;;;18.70;3.15;;;;;;;;;;5049283;28;20033;-66
2021/07/29 07:51:09;;;;;;;11.98;2.90;;;;;;;;;;5047855;28;20040;-66
2021/07/29 07:53:35;;;;;;;17.27;3.35;;;;;;;;;;5050238;28;20021;-67
2021/07/29 07:56:02;;;;;;;19.85;3.60;;;;;;;;;;5049420;28;20414;-67
2021/07/29 07:58:28;;;;;;;13.77;2.88;;;;;;;;;;5045631;28;20029;-67
2021/07/29 08:00:54;;;;;;;8.95;2.55;;;;;;;;;;5045345;28;20038;-67
2021/07/29 08:03:21;;;;;;;17.23;3.50;;;;;;;;;;5046048;28;20028;-67
2021/07/29 08:05:47;;;;;;;18.50;3.90;;;;;;;;;;5048966;28;20032;-66
2021/07/29 08:08:13;;;;;;;11.32;3.53;;;;;;;;;;5045958;28;20060;-67
2021/07/29 08:10:40;;;;;;;15.80;3.80;;;;;;;;;;5043755;28;20071;-67
2021/07/29 08:13:07;;;;;;;13.50;3.10;;;;;;;;;;5044660;28;20017;-66
2021/07/29 08:15:33;;;;;;;13.23;2.67;;;;;;;;;;5044610;28;20037;-67
2021/07/29 08:17:59;;;;;;;10.05;2.42;;;;;;;;;;5046159;28;20560;-66
2021/07/29 08:20:26;;;;;;;16.88;3.08;;;;;;;;;;5044178;28;20124;-66
2021/07/29 08:22:52;;;;;;;14.98;3.47;;;;;;;;;;5043361;28;20120;-67
2021/07/29 08:25:20;;;;;;;18.80;4.03;;;;;;;;;;5041343;28;20033;-67
2021/07/29 08:27:47;;;;;;;19.20;3.38;;;;;;;;;;5042688;28;20227;-66
2021/07/29 08:30:14;;;;;;;18.65;4.10;;;;;;;;;;5044084;28;20025;-66
2021/07/29 08:32:40;;;;;;;22.58;4.03;;;;;;;;;;5045552;28;20040;-66
2021/07/29 08:35:06;;;;;;;16.17;3.65;;;;;;;;;;5043775;28;20033;-67
2021/07/29 08:37:32;;;;;;;10.52;3.28;;;;;;;;;;5048949;28;20025;-67
2021/07/29 08:39:58;;;;;;;17.50;3.45;;;;;;;;;;5046803;28;20032;-68
2021/07/29 08:42:26;;;;;;;18.40;3.33;;;;;;;;;;5051100;28;20040;-66
2021/07/29 08:44:53;;;;;;;15.32;3.83;;;;;;;;;;5047579;28;20116;-66
2021/07/29 08:47:23;;;;;;;19.30;3.65;;;;;;;;;;5049725;28;20497;-67
2021/07/29 08:49:51;;;;;;;12.38;3.58;;;;;;;;;;5049344;28;20033;-68
2021/07/29 08:52:17;;;;;;;16.60;3.45;;;;;;;;;;5046060;28;20451;-66
2021/07/29 08:54:43;;;;;;;12.05;3.40;;;;;;;;;;5049652;28;20017;-68
2021/07/29 08:57:13;;;;;;;11.00;2.80;;;;;;;;;;5048008;28;20083;-66
2021/07/29 08:59:39;;;;;;;19.23;3.80;;;;;;;;;;5046804;28;20064;-67
2021/07/29 09:02:21;;;;;;;13.77;3.50;;;;;;;;;;5049897;28;20036;-66
2021/07/29 09:05:06;;;;;;;13.45;2.90;;;;;;;;;;5048682;28;20531;-69
2021/07/29 09:07:33;;;;;;;17.48;4.60;;;;;;;;;;5050479;28;20040;-65
2021/07/29 09:09:59;;;;;;;17.85;3.20;;;;;;;;;;5050065;28;20055;-65
2021/07/29 09:12:25;;;;;;;14.90;2.83;;;;;;;;;;5049724;28;20033;-66
2021/07/29 09:14:52;;;;;;;17.88;3.72;;;;;;;;;;5047221;28;20358;-67
2021/07/29 09:17:19;;;;;;;20.35;4.35;;;;;;;;;;5045813;28;20025;-68
2021/07/29 09:19:46;;;;;;;19.40;4.55;;;;;;;;;;5051437;28;20025;-67
2021/07/29 09:22:12;;;;;;;15.02;4.00;;;;;;;;;;5045177;28;20033;-67
2021/07/29 09:25:04;;;;;;;13.25;3.80;;;;;;;;;;5049139;28;20032;-68
2021/07/29 09:27:40;;;;;;;22.02;4.65;;;;;;;;;;5036200;28;20033;-66
2021/07/29 09:30:09;;;;;;;21.50;4.72;;;;;;;;;;5052217;28;20064;-65
2021/07/29 09:32:35;;;;;;;18.95;4.15;;;;;;;;;;5052277;28;20021;-65
2021/07/29 09:35:01;;;;;;;24.95;4.72;;;;;;;;;;5040428;28;20026;-68
2021/07/29 09:37:27;;;;;;;17.65;4.75;;;;;;;;;;5052824;28;21441;-68
2021/07/29 09:40:00;;;;;;;23.13;5.13;;;;;;;;;;5048890;28;20540;-67
2021/07/29 09:42:26;;;;;;;20.73;5.18;;;;;;;;;;5052968;28;20059;-66
2021/07/29 09:44:53;;;;;;;24.40;5.22;;;;;;;;;;5050084;28;20056;-65
2021/07/29 09:47:20;;;;;;;18.40;4.70;;;;;;;;;;5049265;28;20029;-67
2021/07/29 09:49:47;;;;;;;26.70;5.38;;;;;;;;;;5051666;28;20063;-67
2021/07/29 09:52:13;;;;;;;23.27;4.70;;;;;;;;;;5052197;28;20028;-66
2021/07/29 09:54:40;;;;;;;26.95;7.00;;;;;;;;;;5050549;28;20040;-66
2021/07/29 09:57:08;;;;;;;21.75;4.65;;;;;;;;;;5050458;28;20029;-68
2021/07/29 09:59:34;;;;;;;23.42;5.32;;;;;;;;;;5048875;28;20068;-67
2021/07/29 10:02:02;;;;;;;22.05;4.63;;;;;;;;;;5045312;28;20458;-66
2021/07/29 10:04:31;;;;;;;26.92;5.63;;;;;;;;;;5049150;28;20053;-67
2021/07/29 10:06:58;;;;;;;23.45;4.80;;;;;;;;;;5048698;28;20060;-67
2021/07/29 10:09:25;;;;;;;21.73;5.88;;;;;;;;;;5049978;28;20042;-69
2021/07/29 10:11:54;;;;;;;19.75;5.50;;;;;;;;;;5050171;28;20047;-67
2021/07/29 10:14:39;;;;;;;18.38;5.20;;;;;;;;;;5051073;28;20025;-66
2021/07/29 10:17:05;;;;;;;21.63;4.63;;;;;;;;;;5045430;28;20060;-68
2021/07/29 10:19:31;;;;;;;25.58;6.03;;;;;;;;;;5050669;28;20025;-67
2021/07/29 10:22:17;;;;;;;23.60;4.70;;;;;;;;;;5048832;28;20455;-67
2021/07/29 10:24:53;;;;;;;26.83;6.20;;;;;;;;;;5050508;28;20052;-66
2021/07/29 10:27:19;;;;;;;14.70;4.72;;;;;;;;;;5057576;28;20491;-69
2021/07/29 10:29:45;;;;;;;19.80;5.97;;;;;;;;;;5051133;28;20082;-68
2021/07/29 10:32:12;;;;;;;24.33;6.45;;;;;;;;;;5051637;28;20025;-68
2021/07/29 10:34:38;;;;;;;27.50;4.53;;;;;;;;;;5046952;28;20048;-70
2021/07/29 10:37:05;;;;;;;22.00;5.90;;;;;;;;;;5045991;28;20045;-66
2021/07/29 10:39:32;;;;;;;22.25;5.60;;;;;;;;;;5046702;28;20021;-66
2021/07/29 10:41:58;;;;;;;23.30;5.65;;;;;;;;;;5055156;28;20033;-66
2021/07/29 10:44:36;;;;;;;29.13;6.55;;;;;;;;;;5050755;28;20032;-67
2021/07/29 10:47:07;;;;;;;15.02;4.90;;;;;;;;;;5047137;28;20036;-66
2021/07/29 10:49:45;;;;;;;26.48;4.75;;;;;;;;;;5049301;28;20510;-66
2021/07/29 10:52:12;;;;;;;18.42;4.35;;;;;;;;;;5047271;28;20472;-68
2021/07/29 10:54:39;;;;;;;20.33;4.32;;;;;;;;;;5050804;28;20025;-67
2021/07/29 10:57:07;;;;;;;22.70;4.65;;;;;;;;;;5047717;28;20033;-66
2021/07/29 10:59:33;;;;;;;22.88;5.32;;;;;;;;;;5054514;28;20094;-68
2021/07/29 11:02:06;;;;;;;21.23;4.95;;;;;;;;;;5051056;28;20435;-68
2021/07/29 11:04:51;;;;;;;23.05;6.50;;;;;;;;;;5051341;28;20028;-68
2021/07/29 11:07:19;;;;;;;23.92;5.13;;;;;;;;;;5050657;28;20103;-69
2021/07/29 11:09:45;;;;;;;17.08;4.90;;;;;;;;;;5050251;28;20021;-67
2021/07/29 11:12:13;;;;;;;32.85;6.10;;;;;;;;;;5050043;28;20108;-68
2021/07/29 11:14:39;;;;;;;22.08;5.57;;;;;;;;;;5048270;28;20051;-67
2021/07/29 11:17:05;;;;;;;17.58;4.95;;;;;;;;;;5051311;28;20068;-71
2021/07/29 11:19:44;;;;;;;23.70;6.15;;;;;;;;;;5050327;28;20120;-68
2021/07/29 11:22:11;;;;;;;17.13;4.32;;;;;;;;;;5051093;28;20056;-68
2021/07/29 11:24:37;;;;;;;19.25;4.40;;;;;;;;;;5049620;28;20052;-67
2021/07/29 11:27:06;;;;;;;21.83;5.53;;;;;;;;;;5049057;28;20028;-68
2021/07/29 11:29:33;;;;;;;21.45;6.20;;;;;;;;;;5051975;28;20035;-66
2021/07/29 11:31:59;;;;;;;22.92;4.55;;;;;;;;;;5050260;28;20111;-68
2021/07/29 11:34:32;;;;;;;19.58;5.60;;;;;;;;;;5049683;28;20029;-67
2021/07/29 11:36:58;;;;;;;20.45;4.30;;;;;;;;;;5047714;28;20049;-69
2021/07/29 11:39:25;;;;;;;17.98;4.63;;;;;;;;;;5047129;28;20025;-67
2021/07/29 11:41:56;;;;;;;21.30;4.45;;;;;;;;;;5038367;28;20481;-67
2021/07/29 11:44:22;;;;;;;19.77;4.18;;;;;;;;;;5049789;28;20484;-64
2021/07/29 11:46:55;;;;;;;22.17;4.28;;;;;;;;;;5046736;28;20040;-67
2021/07/29 11:49:21;;;;;;;24.00;4.47;;;;;;;;;;5044949;28;20108;-66
2021/07/29 11:52:03;;;;;;;17.90;4.60;;;;;;;;;;5047707;28;20433;-65
2021/07/29 11:54:31;;;;;;;17.98;4.47;;;;;;;;;;5043114;28;20044;-66
2021/07/29 11:56:57;;;;;;;18.08;4.13;;;;;;;;;;5045477;28;20021;-68
2021/07/29 11:59:24;;;;;;;18.90;4.35;;;;;;;;;;5050286;28;20021;-67
2021/07/29 12:01:50;;;;;;;19.55;5.15;;;;;;;;;;5047470;28;20112;-68
2021/07/29 12:04:17;;;;;;;13.55;3.22;;;;;;;;;;5048174;28;20021;-74
2021/07/29 12:06:43;;;;;;;21.48;3.92;;;;;;;;;;5044365;28;20047;-69
2021/07/29 12:09:09;;;;;;;17.15;4.75;;;;;;;;;;5046640;28;20515;-68
2021/07/29 12:11:36;;;;;;;12.18;3.92;;;;;;;;;;5042792;28;20546;-67
2021/07/29 12:14:02;;;;;;;22.17;4.88;;;;;;;;;;5046244;28;20021;-67
2021/07/29 12:16:41;;;;;;;13.73;3.97;;;;;;;;;;5046910;28;21506;-67
2021/07/29 12:19:07;;;;;;;20.67;5.50;;;;;;;;;;5046444;28;20072;-67
2021/07/29 12:21:33;;;;;;;17.98;4.38;;;;;;;;;;5049399;28;20029;-67
2021/07/29 12:23:59;;;;;;;17.92;5.28;;;;;;;;;;5046490;28;20037;-68
2021/07/29 12:26:25;;;;;;;15.23;3.97;;;;;;;;;;5048509;28;20036;-65
2021/07/29 12:28:51;;;;;;;14.43;3.47;;;;;;;;;;5050553;28;20029;-66
2021/07/29 12:31:17;;;;;;;10.48;3.00;;;;;;;;;;5044818;28;20067;-66
2021/07/29 12:34:03;;;;;;;14.90;3.63;;;;;;;;;;5043056;28;20029;-65
2021/07/29 12:36:45;;;;;;;16.50;3.35;;;;;;;;;;5045884;28;20289;-66
2021/07/29 12:39:12;;;;;;;17.02;4.25;;;;;;;;;;5044666;28;20056;-68
2021/07/29 12:41:40;;;;;;;10.52;3.25;;;;;;;;;;5048711;28;20037;-67
2021/07/29 12:44:06;;;;;;;14.00;3.08;;;;;;;;;;5049045;28;20032;-66
2021/07/29 12:46:32;;;;;;;11.40;2.92;;;;;;;;;;5046928;28;20021;-66
2021/07/29 12:48:58;;;;;;;17.95;3.72;;;;;;;;;;5049345;28;20029;-68
2021/07/29 12:51:34;;;;;;;15.43;2.97;;;;;;;;;;5047037;28;20512;-66
2021/07/29 12:54:00;;;;;;;8.98;2.88;;;;;;;;;;5046144;28;20017;-67
2021/07/29 12:56:26;;;;;;;15.43;3.50;;;;;;;;;;5045293;28;20025;-66
2021/07/29 12:58:52;;;;;;;13.30;3.13;;;;;;;;;;5047841;28;20293;-65
2021/07/29 13:01:18;;;;;;;11.45;3.40;;;;;;;;;;5046589;28;20051;-67
2021/07/29 13:03:45;;;;;;;11.60;2.72;;;;;;;;;;5046084;28;20033;-68
2021/07/29 13:06:11;;;;;;;13.85;3.78;;;;;;;;;;5046417;28;20033;-67
2021/07/29 13:08:37;;;;;;;12.23;3.10;;;;;;;;;;5048631;28;20032;-67
2021/07/29 13:11:03;;;;;;;13.70;2.95;;;;;;;;;;5049006;28;20075;-67
2021/07/29 13:13:32;;;;;;;11.65;2.55;;;;;;;;;;5049064;28;20488;-70
2021/07/29 13:15:58;;;;;;;12.02;3.00;;;;;;;;;;5046171;28;20025;-67
2021/07/29 13:18:25;;;;;;;11.48;3.40;;;;;;;;;;5052515;28;20025;-68
2021/07/29 13:20:51;;;;;;;16.95;3.95;;;;;;;;;;5054665;28;20418;-68
2021/07/29 13:23:18;;;;;;;16.65;3.65;;;;;;;;;;5057419;28;20033;-67
2021/07/29 13:25:44;;;;;;;13.95;3.92;;;;;;;;;;5061515;28;20484;-66
2021/07/29 13:28:11;;;;;;;14.40;3.67;;;;;;;;;;5058482;28;20078;-67
2021/07/29 13:30:37;;;;;;;12.43;3.63;;;;;;;;;;5060789;28;20525;-66
2021/07/29 13:33:03;;;;;;;10.35;3.58;;;;;;;;;;5059245;28;20042;-70
2021/07/29 13:35:29;;;;;;;15.68;4.32;;;;;;;;;;5056456;28;20037;-67
2021/07/29 13:37:56;;;;;;;14.05;4.10;;;;;;;;;;5057923;28;20075;-66
2021/07/29 13:40:22;;;;;;;18.27;4.32;;;;;;;;;;5058924;28;20031;-65
2021/07/29 13:42:51;;;;;;;15.77;4.80;;;;;;;;;;5059098;28;20029;-67
2021/07/29 13:45:20;;;;;;;12.73;3.95;;;;;;;;;;5055264;28;20021;-66
2021/07/29 13:47:48;;;;;;;13.75;4.32;;;;;;;;;;5050143;28;20119;-68
2021/07/29 13:50:14;;;;;;;13.43;4.40;;;;;;;;;;5052187;28;20029;-65
2021/07/29 13:52:41;;;;;;;14.68;4.53;;;;;;;;;;5050842;28;20024;-67
2021/07/29 13:55:07;;;;;;;15.95;3.90;;;;;;;;;;5047177;28;20021;-67
2021/07/29 13:57:33;;;;;;;17.75;4.60;;;;;;;;;;5051906;28;20063;-70
2021/07/29 13:59:59;;;;;;;22.98;6.25;;;;;;;;;;5048979;28;20141;-68
2021/07/29 14:02:25;;;;;;;19.10;4.80;;;;;;;;;;5050902;28;20032;-69
2021/07/29 14:04:51;;;;;;;18.48;4.65;;;;;;;;;;5050384;28;20032;-69
2021/07/29 14:07:17;;;;;;;18.95;3.85;;;;;;;;;;5048913;28;20562;-66
2021/07/29 14:09:44;;;;;;;22.20;5.03;;;;;;;;;;5049918;28;20033;-69
2021/07/29 14:12:10;;;;;;;18.73;4.32;;;;;;;;;;5050359;28;20059;-69
2021/07/29 14:14:36;;;;;;;18.70;3.85;;;;;;;;;;5048966;28;20025;-69
2021/07/29 14:17:11;;;;;;;16.63;4.28;;;;;;;;;;5047191;28;20059;-66
2021/07/29 14:24:38;;;;;;;17.60;5.10;;;;;;;;;;5050063;28;20086;-67
2021/07/29 14:27:04;;;;;;;18.25;3.95;;;;;;;;;;5050638;28;20110;-67
2021/07/29 14:29:31;;;;;;;20.08;4.90;;;;;;;;;;5049588;28;20060;-70
2021/07/29 14:31:57;;;;;;;21.42;4.82;;;;;;;;;;5048972;28;20485;-68
2021/07/29 14:34:23;;;;;;;26.50;7.20;;;;;;;;;;5048491;28;20021;-67
2021/07/29 14:36:49;;;;;;;27.58;5.80;;;;;;;;;;5047127;28;20056;-67